Carora, Venezuela
Current Conditions -  °F | °C
As of 11:00 AM on Tuesday 21 Oct 2014 (Local Time) from SVBM Reporting Station
Broken Clouds Broken Clouds  
Wind Chill: 27°   Ceiling: 30000
Heat Index: 28°   Visibility: 6mi
Dew Point: 20°   Wind: 13mph
Humidity: 65%   Direction: 110°ESE
Pressure: 30.03"   Gusts: NA
Location:  10.19°N, 70.08°W
Report Text: SVBM 211500Z 11011KT 9999 SCT016 BKN300 27/20 Q1017
Loading
Personal Weather Stations






























Interactive Weather Map
Tropical Storm Tracking
New forecast layout! Learn more

10-Day Weather Forecast

Advertisements
Track Severe Weather on mobile